createdAt,value
2018-08-06T00:02:43.000Z,25.5
2018-08-06T00:12:43.000Z,25.4
2018-08-06T00:22:43.000Z,25.4
2018-08-06T00:32:43.000Z,25.2
2018-08-06T00:42:43.000Z,25.1
2018-08-06T00:52:43.000Z,25.1
2018-08-06T01:02:43.000Z,25
2018-08-06T01:12:43.000Z,25
2018-08-06T01:22:44.000Z,24.7
2018-08-06T01:32:44.000Z,24.9
2018-08-06T01:42:44.000Z,24.9
2018-08-06T01:52:44.000Z,24.8
2018-08-06T02:02:44.000Z,24.7
2018-08-06T02:12:44.000Z,24.6
2018-08-06T02:22:44.000Z,24.6
2018-08-06T02:32:44.000Z,24.6
2018-08-06T02:42:44.000Z,24.3
2018-08-06T02:52:44.000Z,24.1
2018-08-06T03:02:44.000Z,24
2018-08-06T03:12:44.000Z,23.9
2018-08-06T03:22:44.000Z,23.8
2018-08-06T03:32:44.000Z,23.7
2018-08-06T03:42:44.000Z,23.9
2018-08-06T03:52:44.000Z,23.7
2018-08-06T04:02:44.000Z,23.7
2018-08-06T04:12:44.000Z,23.8
2018-08-06T04:22:44.000Z,24
2018-08-06T04:32:44.000Z,23.9
2018-08-06T04:42:44.000Z,23.9
2018-08-06T04:52:44.000Z,24
2018-08-06T05:02:44.000Z,24
2018-08-06T05:12:44.000Z,24.2
2018-08-06T05:22:44.000Z,24.4
2018-08-06T05:32:44.000Z,24.6
2018-08-06T05:42:44.000Z,24.8
2018-08-06T05:52:44.000Z,24.8
2018-08-06T06:02:44.000Z,25
2018-08-06T06:12:44.000Z,25.2
2018-08-06T06:22:44.000Z,25.3
2018-08-06T06:32:44.000Z,25.3
2018-08-06T06:42:44.000Z,25.5
2018-08-06T06:52:44.000Z,25.4
2018-08-06T07:02:44.000Z,25.5
2018-08-06T07:12:44.000Z,25.5
2018-08-06T07:22:44.000Z,25.5
2018-08-06T07:32:44.000Z,25.6
2018-08-06T07:42:44.000Z,25.6
2018-08-06T07:52:44.000Z,25.6
2018-08-06T08:02:44.000Z,25.8
2018-08-06T08:12:45.000Z,25.9
2018-08-06T08:22:45.000Z,26
2018-08-06T08:32:45.000Z,26.2
2018-08-06T08:42:45.000Z,26.3
2018-08-06T08:52:45.000Z,26.4
2018-08-06T09:02:45.000Z,26.5
2018-08-06T09:12:45.000Z,26.5
2018-08-06T09:22:45.000Z,26.4
2018-08-06T09:32:45.000Z,26.6
2018-08-06T09:42:45.000Z,26.6
2018-08-06T09:52:45.000Z,26.6
2018-08-06T10:02:45.000Z,26.5
2018-08-06T10:12:45.000Z,26.7
2018-08-06T10:22:45.000Z,26.7
2018-08-06T10:32:45.000Z,26.7
2018-08-06T10:42:45.000Z,26.7
2018-08-06T10:52:45.000Z,26.7
2018-08-06T11:02:45.000Z,26.7
2018-08-06T11:12:45.000Z,26.6
2018-08-06T11:22:45.000Z,26.8
2018-08-06T11:32:45.000Z,26.8
2018-08-06T11:42:45.000Z,26.8
2018-08-06T11:52:45.000Z,26.8
2018-08-06T12:02:45.000Z,26.8
2018-08-06T12:12:45.000Z,26.9
2018-08-06T12:22:45.000Z,26.9
2018-08-06T12:32:45.000Z,26.9
2018-08-06T12:42:45.000Z,26.9
2018-08-06T12:52:45.000Z,26.9
2018-08-06T13:02:45.000Z,27.1
2018-08-06T13:12:45.000Z,27.1
2018-08-06T13:22:45.000Z,27
2018-08-06T13:32:45.000Z,27.1
2018-08-06T13:42:45.000Z,27.1
2018-08-06T13:52:45.000Z,27.1
2018-08-06T14:02:45.000Z,27.1
2018-08-06T14:12:45.000Z,27.2
2018-08-06T14:22:45.000Z,27.1
2018-08-06T14:32:46.000Z,27.3
2018-08-06T14:42:45.000Z,27.3
2018-08-06T14:52:46.000Z,27.4
2018-08-06T15:02:46.000Z,27.6
2018-08-06T15:12:46.000Z,27.7
2018-08-06T15:22:46.000Z,27.6
2018-08-06T15:32:46.000Z,27.6
2018-08-06T15:42:46.000Z,27.7
2018-08-06T15:52:46.000Z,27.7
2018-08-06T16:02:46.000Z,27.7
2018-08-06T16:12:46.000Z,27.7
2018-08-06T16:22:46.000Z,27.8
2018-08-06T16:32:46.000Z,27.7
2018-08-06T16:42:46.000Z,27.6
2018-08-06T16:52:46.000Z,27.6
2018-08-06T17:02:46.000Z,27.5
2018-08-06T17:12:46.000Z,27.5
2018-08-06T17:22:46.000Z,27.4
2018-08-06T17:32:46.000Z,27.5
2018-08-06T17:42:46.000Z,27.4
2018-08-06T17:52:46.000Z,27.4
2018-08-06T18:02:46.000Z,27.4
2018-08-06T18:12:46.000Z,27.4
2018-08-06T18:22:46.000Z,27.5
2018-08-06T18:32:46.000Z,27.4
2018-08-06T18:42:46.000Z,27.4
2018-08-06T18:52:46.000Z,27.5
2018-08-06T19:02:46.000Z,27.4
2018-08-06T19:12:46.000Z,27.5
2018-08-06T19:22:46.000Z,27.5
2018-08-06T19:32:46.000Z,27.4
2018-08-06T19:42:46.000Z,27.5
2018-08-06T19:52:46.000Z,27.5
2018-08-06T20:02:46.000Z,27.5
2018-08-06T20:12:46.000Z,27.5
2018-08-06T20:22:46.000Z,27.5
2018-08-06T20:32:46.000Z,27.6
2018-08-06T20:42:46.000Z,27.4
2018-08-06T20:52:46.000Z,27.5
2018-08-06T21:02:46.000Z,27.4
2018-08-06T21:12:46.000Z,27.6
2018-08-06T21:22:47.000Z,27.5
2018-08-06T21:32:47.000Z,27.3
2018-08-06T21:42:47.000Z,27.1
2018-08-06T21:52:47.000Z,26.9
2018-08-06T22:02:47.000Z,26.8
2018-08-06T22:12:47.000Z,26.7
2018-08-06T22:22:47.000Z,26.7
2018-08-06T22:32:47.000Z,26.7
2018-08-06T22:42:47.000Z,26.7
2018-08-06T22:52:47.000Z,26.7
2018-08-06T23:02:47.000Z,26.5
2018-08-06T23:12:47.000Z,26.3
2018-08-06T23:22:47.000Z,26.3
2018-08-06T23:32:47.000Z,26.4
2018-08-06T23:42:47.000Z,26.3
2018-08-06T23:52:47.000Z,26.2
